createdAt,value
2017-12-27T15:21:30.057Z,82.42
2017-12-27T15:22:29.974Z,82.27
2017-12-27T15:24:23.299Z,82.65
2017-12-27T15:25:23.201Z,82.61
2017-12-27T15:27:17.490Z,82.04
2017-12-27T15:28:17.364Z,82.32
2017-12-27T15:30:11.629Z,81.95
2017-12-27T15:31:11.524Z,82.42
2017-12-27T15:33:05.771Z,82.14
2017-12-27T15:34:05.666Z,82.14
2017-12-27T15:35:59.939Z,81.95
2017-12-27T15:36:59.834Z,81.76
2017-12-27T15:38:54.081Z,81.66
2017-12-27T15:39:53.975Z,81.56
2017-12-27T15:41:48.236Z,81.66
2017-12-27T15:42:48.113Z,83.09
2017-12-27T15:44:44.354Z,83.28
2017-12-27T15:45:44.309Z,82.99
2017-12-27T15:46:44.167Z,82.80
2017-12-27T15:47:44.089Z,82.90
2017-12-27T15:48:43.997Z,83.18
2017-12-27T15:49:43.909Z,83.94
2017-12-27T15:50:43.823Z,83.65
2017-12-27T15:51:43.742Z,83.85
2017-12-27T15:52:43.664Z,83.09
2017-12-27T15:53:43.576Z,82.80
2017-12-27T15:54:43.520Z,82.90
2017-12-27T15:55:43.403Z,82.70
2017-12-27T15:56:43.347Z,83.28
2017-12-27T15:57:43.229Z,83.18
2017-12-27T15:58:43.146Z,83.37
2017-12-27T15:59:43.056Z,83.75
2017-12-27T16:00:42.971Z,83.75
2017-12-27T16:01:42.884Z,83.85
2017-12-27T16:02:42.825Z,83.75
2017-12-27T16:03:42.724Z,83.37
2017-12-27T16:04:42.623Z,83.37
2017-12-27T16:05:42.546Z,82.99
2017-12-27T16:06:42.456Z,83.28
2017-12-27T16:07:42.374Z,82.80
2017-12-27T16:08:42.289Z,83.28
2017-12-27T16:09:42.200Z,82.99
2017-12-27T16:10:42.116Z,83.18
2017-12-27T16:11:42.033Z,82.99
2017-12-27T16:12:41.950Z,82.90
2017-12-27T16:13:41.861Z,82.99
2017-12-27T16:14:41.772Z,82.61
2017-12-27T16:15:41.684Z,82.70
2017-12-27T16:16:41.599Z,82.90
2017-12-27T16:17:41.518Z,82.99
2017-12-27T16:18:41.431Z,82.99
2017-12-27T16:19:41.364Z,83.09
2017-12-27T16:20:41.258Z,82.80
2017-12-27T16:21:41.207Z,82.99
2017-12-27T16:22:41.095Z,82.99
2017-12-27T16:23:41.005Z,82.51
2017-12-27T16:24:40.922Z,82.32
2017-12-27T16:25:40.847Z,82.70
2017-12-27T16:26:40.756Z,82.61
2017-12-27T16:27:40.670Z,82.99
2017-12-27T16:28:40.585Z,83.37
2017-12-27T16:29:40.491Z,83.18
2017-12-27T16:30:40.407Z,82.99
2017-12-27T16:31:40.327Z,82.80
2017-12-27T16:32:40.244Z,83.28
2017-12-27T16:33:40.156Z,82.99
2017-12-27T16:34:40.077Z,83.56
2017-12-27T16:35:39.982Z,83.28
2017-12-27T16:36:39.900Z,83.65
2017-12-27T16:37:39.816Z,83.47
2017-12-27T16:38:39.729Z,83.37
2017-12-27T16:39:39.644Z,83.37
2017-12-27T16:40:39.566Z,83.47
2017-12-27T16:41:39.474Z,83.65
2017-12-27T16:42:39.398Z,84.13
2017-12-27T16:43:39.309Z,83.75
2017-12-27T16:44:39.220Z,83.75
2017-12-27T16:45:39.138Z,84.42
2017-12-27T16:46:39.053Z,84.04
2017-12-27T16:47:38.967Z,84.13
2017-12-27T16:48:38.889Z,84.13
2017-12-27T16:49:38.796Z,84.04
2017-12-27T16:50:38.711Z,83.85
2017-12-27T16:51:38.631Z,83.37
2017-12-27T16:52:38.542Z,82.99
2017-12-27T16:53:38.461Z,82.99
2017-12-27T16:54:38.372Z,82.80
2017-12-27T16:55:38.286Z,83.56
2017-12-27T16:56:38.199Z,83.37
2017-12-27T16:57:38.116Z,83.47
2017-12-27T16:58:38.089Z,83.65
2017-12-27T16:59:37.945Z,84.04
2017-12-27T17:00:37.857Z,83.47
2017-12-27T17:01:37.780Z,83.71
2017-12-27T17:02:37.689Z,83.37
2017-12-27T17:03:37.604Z,82.90
2017-12-27T17:04:37.531Z,82.99
2017-12-27T17:05:37.438Z,82.99
2017-12-27T17:06:37.358Z,82.90
2017-12-27T17:07:37.265Z,82.61
2017-12-27T17:08:37.185Z,82.90
2017-12-27T17:09:37.109Z,82.99
2017-12-27T17:10:37.015Z,82.80
2017-12-27T17:11:36.932Z,82.99
2017-12-27T17:12:36.844Z,82.90
2017-12-27T17:13:36.761Z,83.09
2017-12-27T17:14:36.677Z,82.80
2017-12-27T17:15:36.590Z,82.80
2017-12-27T17:16:36.507Z,82.95
2017-12-27T17:17:36.418Z,82.99
2017-12-27T17:18:36.338Z,82.86
2017-12-27T17:19:36.246Z,82.76
2017-12-27T17:20:36.175Z,82.57
2017-12-27T17:21:36.077Z,82.76
2017-12-27T17:22:35.999Z,82.38
2017-12-27T17:23:35.909Z,82.67
2017-12-27T17:24:35.825Z,82.86
2017-12-27T17:25:35.742Z,82.67
2017-12-27T17:26:35.653Z,82.76
2017-12-27T17:27:35.588Z,82.38
2017-12-27T17:28:35.488Z,82.04
2017-12-27T17:29:35.401Z,81.56
2017-12-27T17:30:35.318Z,81.66
2017-12-27T17:31:35.228Z,81.81
2017-12-27T17:32:35.154Z,81.71
2017-12-27T17:33:35.065Z,82.09
2017-12-27T17:34:34.981Z,82.19
2017-12-27T17:35:34.891Z,82.86
2017-12-27T17:36:34.809Z,82.86
2017-12-27T17:37:34.718Z,82.95
2017-12-27T17:38:34.664Z,82.86
2017-12-27T17:39:34.548Z,82.76
2017-12-27T17:40:34.467Z,83.04
2017-12-27T17:41:34.381Z,82.76
2017-12-27T17:42:34.306Z,83.14
2017-12-27T17:43:34.209Z,82.95
2017-12-27T17:44:34.125Z,83.14
2017-12-27T17:45:34.037Z,82.57
2017-12-27T17:46:33.959Z,82.38
2017-12-27T17:47:33.884Z,82.00
2017-12-27T17:48:33.786Z,82.00
2017-12-27T17:49:33.704Z,81.52
2017-12-27T17:50:33.608Z,81.62
2017-12-27T17:51:33.533Z,81.81
2017-12-27T17:52:33.445Z,82.09
2017-12-27T17:53:33.357Z,81.90
2017-12-27T17:54:33.271Z,82.09
2017-12-27T17:55:33.185Z,81.90
2017-12-27T17:56:33.105Z,81.81
2017-12-27T17:57:33.017Z,82.19
2017-12-27T17:58:32.932Z,82.19
2017-12-27T17:59:32.950Z,81.90
2017-12-27T18:00:32.773Z,82.28
2017-12-27T18:01:32.673Z,82.00
2017-12-27T18:02:32.594Z,82.38
2017-12-27T18:03:32.508Z,82.86
2017-12-27T18:04:32.424Z,82.67
2017-12-27T18:05:32.336Z,82.86
2017-12-27T18:06:32.291Z,82.76
2017-12-27T18:07:32.164Z,83.04
2017-12-27T18:08:32.083Z,83.52
2017-12-27T18:09:31.994Z,83.90
2017-12-27T18:10:31.913Z,83.62
2017-12-27T18:11:31.849Z,83.42
2017-12-27T18:12:31.746Z,83.71
2017-12-27T18:13:31.656Z,84.00
2017-12-27T18:14:31.567Z,84.19
2017-12-27T18:15:31.490Z,84.38
2017-12-27T18:16:31.399Z,84.38
2017-12-27T18:17:31.314Z,84.28
2017-12-27T18:18:31.231Z,84.66
2017-12-27T18:19:31.145Z,84.85
2017-12-27T18:20:31.065Z,84.19
2017-12-27T18:21:30.974Z,84.00
2017-12-27T18:22:30.891Z,84.19
2017-12-27T18:23:30.801Z,83.62
2017-12-27T18:24:30.727Z,83.62
2017-12-27T18:25:30.637Z,83.62
2017-12-27T18:26:30.553Z,83.52
2017-12-27T18:27:30.467Z,83.62
2017-12-27T18:28:30.379Z,84.00
2017-12-27T18:29:30.297Z,84.09
2017-12-27T18:30:30.213Z,83.81
2017-12-27T18:31:30.128Z,83.81
2017-12-27T18:32:30.046Z,83.81
2017-12-27T18:33:29.954Z,84.19
2017-12-27T18:34:29.868Z,84.19
2017-12-27T18:35:29.785Z,84.95
2017-12-27T18:36:29.706Z,85.04
2017-12-27T18:37:29.616Z,84.85
2017-12-27T18:38:29.532Z,84.47
2017-12-27T18:39:29.438Z,84.28
2017-12-27T18:40:29.358Z,84.66
2017-12-27T18:41:29.270Z,85.04
2017-12-27T18:42:29.182Z,84.85
2017-12-27T18:43:29.095Z,84.47
2017-12-27T18:44:29.015Z,84.66
2017-12-27T18:45:28.929Z,84.85
2017-12-27T18:46:28.834Z,85.61
2017-12-27T18:47:28.747Z,85.99
2017-12-27T18:48:28.684Z,86.57
2017-12-27T18:49:28.589Z,86.38
2017-12-27T18:50:28.495Z,86.76
2017-12-27T18:51:28.402Z,87.04
2017-12-27T18:52:28.315Z,87.13
2017-12-27T18:53:28.230Z,87.66
2017-12-27T18:54:28.141Z,88.18
2017-12-27T18:55:28.052Z,87.90
2017-12-27T18:56:27.968Z,87.80
2017-12-27T18:57:27.880Z,87.52
2017-12-27T18:58:27.792Z,87.71
2017-12-27T18:59:27.700Z,88.28
2017-12-27T19:00:27.618Z,88.28
2017-12-27T19:01:27.567Z,87.71
2017-12-27T19:02:27.443Z,87.52
2017-12-27T19:03:27.365Z,87.90
2017-12-27T19:04:27.282Z,87.90
2017-12-27T19:05:27.186Z,88.37
2017-12-27T19:06:27.092Z,88.71
2017-12-27T19:07:27.013Z,89.04
2017-12-27T19:08:26.921Z,89.47
2017-12-27T19:09:26.835Z,89.85
2017-12-27T19:10:26.750Z,89.37
2017-12-27T19:11:26.658Z,90.80
2017-12-27T19:12:26.569Z,90.80
2017-12-27T19:13:26.490Z,89.85
2017-12-27T19:14:26.404Z,89.75
2017-12-27T19:15:26.326Z,91.08
2017-12-27T19:16:26.228Z,91.61
2017-12-27T19:17:26.139Z,91.99
2017-12-27T19:18:26.044Z,91.94
2017-12-27T19:19:25.975Z,91.37
2017-12-27T19:20:25.870Z,90.04
2017-12-27T19:21:25.782Z,89.85
2017-12-27T19:22:25.694Z,89.85
2017-12-27T19:23:25.615Z,89.56
2017-12-27T19:24:25.525Z,89.56
2017-12-27T19:25:25.439Z,89.47
2017-12-27T19:26:25.346Z,89.66
2017-12-27T19:27:25.260Z,89.37
2017-12-27T19:28:25.171Z,89.37
2017-12-27T19:29:25.084Z,89.56
2017-12-27T19:30:25.006Z,89.00
2017-12-27T19:31:24.906Z,89.75
2017-12-27T19:32:24.822Z,89.66
2017-12-27T19:33:24.734Z,89.66
2017-12-27T19:34:24.650Z,90.80
2017-12-27T19:35:24.606Z,90.80
2017-12-27T19:36:24.469Z,90.52
2017-12-27T19:37:24.379Z,90.42
2017-12-27T19:38:24.292Z,90.61
2017-12-27T19:39:24.224Z,89.94
2017-12-27T19:40:24.127Z,90.61
2017-12-27T19:41:24.030Z,90.23
2017-12-27T19:42:23.945Z,90.89
2017-12-27T19:43:23.860Z,90.52
2017-12-27T19:44:23.780Z,90.61
2017-12-27T19:45:23.678Z,90.04
2017-12-27T19:46:23.589Z,90.42
2017-12-27T19:47:23.498Z,89.66
2017-12-27T19:48:23.419Z,89.85
2017-12-27T19:49:23.385Z,89.61
2017-12-27T19:50:23.235Z,90.04
2017-12-27T19:51:23.151Z,89.66
2017-12-27T19:52:23.066Z,88.80
2017-12-27T19:53:22.975Z,88.71
2017-12-27T19:54:22.883Z,88.13
2017-12-27T19:55:22.802Z,88.13
2017-12-27T19:56:22.709Z,87.95
2017-12-27T19:57:22.630Z,87.38
2017-12-27T19:58:22.537Z,87.66
2017-12-27T19:59:22.446Z,87.90
2017-12-27T20:00:22.355Z,87.95
2017-12-27T20:01:22.269Z,87.76
2017-12-27T20:02:22.183Z,86.80
2017-12-27T20:03:22.103Z,86.10
2017-12-27T20:04:22.002Z,85.86
2017-12-27T20:05:21.942Z,85.95
2017-12-27T20:06:21.827Z,85.95
2017-12-27T20:07:21.740Z,85.15
2017-12-27T20:08:21.651Z,84.77
2017-12-27T20:09:21.558Z,84.14
2017-12-27T20:10:21.471Z,84.24
2017-12-27T20:11:21.384Z,84.20
2017-12-27T20:12:21.297Z,84.10
2017-12-27T20:13:21.207Z,84.33
2017-12-27T20:14:21.119Z,84.14
2017-12-27T20:15:21.028Z,83.29
2017-12-27T20:16:20.938Z,83.44
2017-12-27T20:17:20.856Z,83.58
2017-12-27T20:18:20.762Z,83.29
2017-12-27T20:19:20.685Z,83.10
2017-12-27T20:20:20.612Z,82.91
2017-12-27T20:21:20.502Z,82.91
2017-12-27T20:22:20.412Z,82.10
2017-12-27T20:23:20.326Z,81.67
2017-12-27T20:24:20.234Z,81.01
2017-12-27T20:25:20.151Z,81.06
2017-12-27T20:26:20.060Z,80.68
2017-12-27T20:27:19.968Z,80.58
2017-12-27T20:28:19.880Z,80.68
2017-12-27T20:29:19.812Z,79.73
2017-12-27T20:30:19.708Z,79.35
2017-12-27T20:31:19.621Z,79.16
2017-12-27T20:32:19.536Z,79.63
2017-12-27T20:33:19.435Z,79.35
2017-12-27T20:34:19.350Z,78.69
2017-12-27T20:35:19.263Z,78.78
2017-12-27T20:36:19.169Z,77.36
2017-12-27T20:37:19.081Z,77.17
2017-12-27T20:38:18.999Z,77.36
2017-12-27T20:39:18.902Z,77.17
2017-12-27T20:40:18.828Z,76.59
2017-12-27T20:41:18.728Z,76.78
2017-12-27T20:42:18.636Z,77.07
2017-12-27T20:43:18.547Z,76.88
2017-12-27T20:44:18.458Z,76.31
2017-12-27T20:45:18.370Z,76.97
2017-12-27T20:46:18.285Z,76.40
2017-12-27T20:47:18.199Z,76.50
2017-12-27T20:48:18.109Z,76.31
2017-12-27T20:49:18.046Z,75.93
2017-12-27T20:50:17.952Z,75.07
2017-12-27T20:51:17.843Z,75.64
2017-12-27T20:52:17.754Z,76.31
2017-12-27T20:53:17.665Z,75.74
2017-12-27T20:54:17.576Z,75.93
2017-12-27T20:55:17.489Z,76.40
2017-12-27T20:56:17.392Z,75.84
2017-12-27T20:57:17.306Z,75.84
2017-12-27T20:58:17.228Z,76.12
2017-12-27T20:59:17.129Z,75.84
2017-12-27T21:00:17.043Z,75.93
2017-12-27T21:01:16.956Z,75.64
2017-12-27T21:02:16.863Z,75.64
2017-12-27T21:03:16.770Z,76.12
2017-12-27T21:04:16.688Z,76.03
2017-12-27T21:05:16.596Z,76.03
2017-12-27T21:06:16.515Z,76.50
2017-12-27T21:07:16.418Z,76.21
2017-12-27T21:08:16.332Z,76.78
2017-12-27T21:09:16.243Z,76.59
2017-12-27T21:10:16.155Z,76.59
2017-12-27T21:11:16.072Z,77.41
2017-12-27T21:12:15.974Z,76.50
2017-12-27T21:13:15.889Z,76.12
2017-12-27T21:14:15.807Z,76.78
2017-12-27T21:15:15.712Z,76.59
2017-12-27T21:16:15.626Z,75.93
2017-12-27T21:17:15.528Z,76.40
2017-12-27T21:18:15.438Z,76.18
2017-12-27T21:19:15.358Z,76.27
2017-12-27T21:20:15.262Z,76.08
2017-12-27T21:21:15.180Z,76.37
2017-12-27T21:22:15.085Z,75.64
2017-12-27T21:23:14.993Z,75.36
2017-12-27T21:24:14.910Z,75.45
2017-12-27T21:25:14.812Z,74.85
2017-12-27T21:26:14.730Z,75.36
2017-12-27T21:27:14.638Z,74.51
2017-12-27T21:28:14.556Z,74.08
2017-12-27T21:29:14.458Z,74.22
2017-12-27T21:30:14.371Z,74.22
2017-12-27T21:31:14.279Z,74.12
2017-12-27T21:32:14.189Z,73.55
2017-12-27T21:33:14.112Z,73.08
2017-12-27T21:34:14.141Z,73.27
2017-12-27T21:35:13.925Z,73.18
2017-12-27T21:36:13.835Z,73.33
2017-12-27T21:37:13.757Z,73.42
2017-12-27T21:38:13.655Z,73.36
2017-12-27T21:39:13.568Z,73.23
2017-12-27T21:40:13.488Z,73.61
2017-12-27T21:41:13.388Z,73.71
2017-12-27T21:42:13.309Z,73.04
2017-12-27T21:43:13.212Z,73.33
2017-12-27T21:44:13.123Z,73.93
2017-12-27T21:45:13.037Z,73.27
2017-12-27T21:46:12.947Z,73.27
2017-12-27T21:47:12.872Z,73.33
2017-12-27T21:48:12.769Z,73.42
2017-12-27T21:49:12.682Z,74.18
2017-12-27T21:50:12.589Z,74.08
2017-12-27T21:51:12.500Z,74.27
2017-12-27T21:52:12.418Z,74.08
2017-12-27T21:53:12.319Z,74.18
2017-12-27T21:54:12.233Z,75.23
2017-12-27T21:55:12.159Z,75.13
2017-12-27T21:56:12.058Z,74.79
2017-12-27T21:57:11.974Z,74.60
2017-12-27T21:58:11.884Z,74.75
2017-12-27T21:59:11.794Z,75.04
2017-12-27T22:00:11.703Z,75.17
2017-12-27T22:01:11.623Z,75.36
2017-12-27T22:02:11.527Z,75.36
2017-12-27T22:03:11.438Z,74.98
2017-12-27T22:04:11.356Z,75.17
2017-12-27T22:05:11.261Z,74.79
2017-12-27T22:06:11.180Z,75.26
2017-12-27T22:07:11.082Z,75.84
2017-12-27T22:08:11.001Z,75.55
2017-12-27T22:09:10.910Z,75.17
2017-12-27T22:10:10.822Z,75.55
2017-12-27T22:11:10.729Z,75.17
2017-12-27T22:12:10.643Z,75.17
2017-12-27T22:13:10.556Z,75.17
2017-12-27T22:14:10.469Z,75.36
2017-12-27T22:15:10.377Z,75.17
2017-12-27T22:16:10.291Z,74.98
2017-12-27T22:17:10.213Z,75.17
2017-12-27T22:18:10.118Z,75.36
2017-12-27T22:19:10.024Z,75.45
2017-12-27T22:20:09.943Z,75.26
2017-12-27T22:21:09.869Z,75.36
2017-12-27T22:22:09.764Z,75.45
2017-12-27T22:23:09.676Z,75.55
2017-12-27T22:24:09.590Z,75.55
2017-12-27T22:25:09.510Z,75.64
2017-12-27T22:26:09.423Z,75.84
2017-12-27T22:27:09.327Z,75.64
2017-12-27T22:28:09.247Z,75.93
2017-12-27T22:29:09.160Z,76.12
2017-12-27T22:30:09.062Z,76.03
2017-12-27T22:31:08.975Z,76.12
2017-12-27T22:32:08.885Z,76.03
2017-12-27T22:33:08.823Z,76.21
2017-12-27T22:34:08.716Z,76.59
2017-12-27T22:35:08.627Z,76.59
2017-12-27T22:36:08.535Z,76.59
2017-12-27T22:37:08.446Z,75.93
2017-12-27T22:38:08.359Z,75.93
2017-12-27T22:39:08.278Z,76.69
2017-12-27T22:40:08.189Z,76.59
2017-12-27T22:41:08.129Z,76.50
2017-12-27T22:42:08.014Z,76.97
2017-12-27T22:43:07.942Z,76.97
2017-12-27T22:44:07.838Z,77.26
2017-12-27T22:45:07.747Z,77.07
2017-12-27T22:46:07.662Z,77.31
2017-12-27T22:47:07.575Z,77.55
2017-12-27T22:48:07.489Z,77.36
2017-12-27T22:49:07.391Z,77.36
2017-12-27T22:50:07.303Z,77.83
2017-12-27T22:51:07.258Z,78.74
2017-12-27T22:52:07.129Z,78.83
2017-12-27T22:53:07.039Z,78.83
2017-12-27T22:54:06.949Z,79.41
2017-12-27T22:55:06.861Z,79.69
2017-12-27T22:56:06.774Z,79.50
2017-12-27T22:57:06.683Z,79.60
2017-12-27T22:58:06.597Z,78.83
2017-12-27T22:59:06.505Z,79.50
2017-12-27T23:00:06.415Z,79.50
2017-12-27T23:01:06.328Z,79.22
2017-12-27T23:02:06.238Z,79.88
2017-12-27T23:03:06.154Z,79.88
2017-12-27T23:04:06.057Z,80.16
2017-12-27T23:05:05.972Z,80.07
2017-12-27T23:06:05.885Z,80.35
2017-12-27T23:07:05.793Z,79.60
2017-12-27T23:08:05.701Z,79.50
2017-12-27T23:09:05.614Z,79.60
2017-12-27T23:10:05.522Z,79.97
2017-12-27T23:11:05.474Z,79.31
2017-12-27T23:12:05.350Z,79.88
2017-12-27T23:13:05.264Z,79.79
2017-12-27T23:14:05.168Z,79.60
2017-12-27T23:15:05.088Z,79.97
2017-12-27T23:16:04.992Z,79.79
2017-12-27T23:17:04.908Z,79.12
2017-12-27T23:18:04.823Z,79.88
2017-12-27T23:19:04.727Z,79.88
2017-12-27T23:20:04.646Z,79.88
2017-12-27T23:21:04.545Z,80.51
2017-12-27T23:22:04.453Z,80.98
2017-12-27T23:23:04.361Z,80.98
2017-12-27T23:24:04.270Z,83.16
2017-12-27T23:25:04.184Z,82.50
2017-12-27T23:26:04.092Z,81.78
2017-12-27T23:27:04.004Z,81.40
2017-12-27T23:28:03.925Z,80.83
2017-12-27T23:29:03.835Z,81.02
2017-12-27T23:30:03.751Z,81.21
2017-12-27T23:31:03.657Z,81.26
2017-12-27T23:32:03.572Z,81.30
2017-12-27T23:33:03.473Z,81.68
2017-12-27T23:34:03.381Z,81.65
2017-12-27T23:35:03.288Z,82.12
2017-12-27T23:36:03.217Z,81.93
2017-12-27T23:37:03.116Z,82.07
2017-12-27T23:38:03.081Z,81.87
2017-12-27T23:39:02.947Z,81.40
2017-12-27T23:40:02.843Z,81.30
2017-12-27T23:41:02.768Z,82.31
2017-12-27T23:42:02.671Z,82.82
2017-12-27T23:43:02.595Z,82.35
2017-12-27T23:44:02.495Z,82.64
2017-12-27T23:45:02.399Z,82.64
2017-12-27T23:46:02.338Z,82.45
2017-12-27T23:47:02.218Z,82.82
2017-12-27T23:48:02.134Z,83.11
2017-12-27T23:49:02.039Z,83.01
2017-12-27T23:50:01.951Z,83.01
2017-12-27T23:51:01.862Z,83.11
2017-12-27T23:52:01.782Z,83.26
2017-12-27T23:53:01.687Z,83.45
2017-12-27T23:54:01.601Z,83.64
2017-12-27T23:55:01.504Z,83.68
2017-12-27T23:56:01.414Z,83.30
2017-12-27T23:57:01.325Z,82.73
2017-12-27T23:58:01.240Z,82.82
2017-12-27T23:59:01.152Z,82.73
